createdAt,value
2022-11-17T00:00:52.158Z,98.40
2022-11-17T00:04:14.427Z,98.30
2022-11-17T00:07:36.719Z,98.30
2022-11-17T00:11:00.939Z,98.30
2022-11-17T00:14:36.604Z,98.30
2022-11-17T00:18:18.761Z,98.30
2022-11-17T00:21:40.944Z,98.20
2022-11-17T00:25:03.269Z,98.30
2022-11-17T00:28:25.467Z,98.20
2022-11-17T00:32:06.643Z,98.20
2022-11-17T00:35:28.812Z,98.20
2022-11-17T00:38:50.950Z,98.20
2022-11-17T00:42:13.083Z,98.10
2022-11-17T00:45:35.237Z,98.20
2022-11-17T00:48:57.489Z,98.10
2022-11-17T00:52:19.666Z,98.10
2022-11-17T00:55:42.950Z,98.10
2022-11-17T00:59:05.170Z,98.00
2022-11-17T01:02:27.312Z,97.90
2022-11-17T01:05:49.457Z,97.90
2022-11-17T01:09:14.315Z,97.90
2022-11-17T01:12:36.460Z,97.90
2022-11-17T01:16:12.236Z,97.90
2022-11-17T01:19:34.388Z,97.80
2022-11-17T01:22:56.549Z,97.80
2022-11-17T01:26:22.397Z,97.70
2022-11-17T01:29:44.561Z,97.80
2022-11-17T01:33:07.057Z,97.70
2022-11-17T01:36:52.307Z,97.70
2022-11-17T01:40:14.799Z,97.70
2022-11-17T01:43:40.101Z,97.70
2022-11-17T01:47:06.240Z,97.70
2022-11-17T01:50:33.046Z,97.70
2022-11-17T01:53:55.261Z,97.70
2022-11-17T01:57:28.296Z,97.70
2022-11-17T02:00:50.921Z,97.70
2022-11-17T02:04:13.081Z,97.60
2022-11-17T02:07:38.383Z,97.70
2022-11-17T02:11:08.296Z,97.60
2022-11-17T02:14:31.581Z,97.60
2022-11-17T02:17:54.253Z,97.60
2022-11-17T02:21:55.742Z,97.60
2022-11-17T02:25:27.395Z,97.60
2022-11-17T02:28:55.161Z,97.60
2022-11-17T02:32:24.592Z,97.60
2022-11-17T02:36:22.029Z,97.60
2022-11-17T02:40:06.812Z,97.60
2022-11-17T02:43:55.167Z,97.50
2022-11-17T02:47:30.312Z,97.50
2022-11-17T02:50:55.150Z,97.50
2022-11-17T02:54:19.570Z,97.50
2022-11-17T02:57:42.051Z,97.50
2022-11-17T03:01:15.131Z,97.50
2022-11-17T03:05:16.530Z,97.50
2022-11-17T03:09:03.313Z,97.50
2022-11-17T03:12:34.292Z,97.50
2022-11-17T03:16:17.452Z,97.50
2022-11-17T03:19:47.045Z,97.50
2022-11-17T03:23:17.349Z,97.60
2022-11-17T03:26:44.894Z,97.60
2022-11-17T03:30:09.742Z,97.50
2022-11-17T03:33:33.641Z,97.50
2022-11-17T03:37:00.836Z,97.60
2022-11-17T03:40:27.523Z,97.50
2022-11-17T03:43:51.880Z,97.60
2022-11-17T03:47:16.718Z,97.60
2022-11-17T03:50:45.680Z,97.70
2022-11-17T03:54:08.974Z,97.60
2022-11-17T03:58:12.392Z,97.70
2022-11-17T04:01:36.590Z,97.70
2022-11-17T04:05:07.983Z,97.60
2022-11-17T04:08:30.799Z,97.70
2022-11-17T04:12:11.744Z,97.70
2022-11-17T04:15:52.379Z,97.70
2022-11-17T04:19:14.652Z,97.70
2022-11-17T04:22:36.780Z,97.70
2022-11-17T04:26:17.717Z,97.90
2022-11-17T04:29:39.900Z,97.80
2022-11-17T04:33:02.026Z,97.80
2022-11-17T04:36:53.848Z,97.80
2022-11-17T04:40:16.043Z,97.80
2022-11-17T04:43:41.537Z,97.70
2022-11-17T04:47:03.868Z,97.70
2022-11-17T04:50:26.065Z,97.80
2022-11-17T04:53:48.652Z,97.80
2022-11-17T04:57:10.788Z,97.80
2022-11-17T05:00:32.990Z,97.70
2022-11-17T05:04:07.046Z,97.80
2022-11-17T05:07:29.293Z,97.80
2022-11-17T05:11:10.157Z,97.80
2022-11-17T05:14:32.377Z,97.90
2022-11-17T05:17:54.555Z,97.70
2022-11-17T05:21:16.685Z,97.80
2022-11-17T05:24:38.921Z,97.80
2022-11-17T05:28:01.127Z,97.90
2022-11-17T05:31:24.467Z,97.90
2022-11-17T05:34:46.746Z,97.80
2022-11-17T05:38:08.856Z,97.80
2022-11-17T05:41:31.558Z,97.80
2022-11-17T05:44:53.835Z,97.80
2022-11-17T05:48:16.516Z,97.80
2022-11-17T05:51:38.721Z,97.80
2022-11-17T05:55:00.908Z,97.70
2022-11-17T05:58:27.711Z,97.80
2022-11-17T06:02:08.630Z,97.80
2022-11-17T06:05:30.816Z,97.90
2022-11-17T06:08:53.016Z,97.80
2022-11-17T06:12:15.575Z,97.80
2022-11-17T06:15:38.303Z,97.80
2022-11-17T06:19:09.112Z,98.20
2022-11-17T06:22:32.148Z,98.00
2022-11-17T06:25:54.774Z,97.90
2022-11-17T06:29:17.304Z,98.00
2022-11-17T06:32:43.674Z,98.10
2022-11-17T06:36:07.960Z,98.30
2022-11-17T06:39:30.154Z,98.20
2022-11-17T06:43:08.242Z,98.20
2022-11-17T06:46:37.883Z,98.00
2022-11-17T06:50:00.036Z,98.20
2022-11-17T06:53:26.051Z,98.20
2022-11-17T06:56:49.700Z,98.20
2022-11-17T07:00:12.581Z,98.00
2022-11-17T07:03:36.701Z,98.20
2022-11-17T07:06:59.172Z,97.60
2022-11-17T07:10:21.460Z,98.40
2022-11-17T07:13:43.924Z,98.50
2022-11-17T07:17:07.216Z,98.20
2022-11-17T07:20:29.460Z,98.20
2022-11-17T07:23:51.743Z,98.10
2022-11-17T07:27:14.125Z,98.10
2022-11-17T07:30:36.445Z,97.70
2022-11-17T07:33:58.812Z,97.70
2022-11-17T07:37:21.148Z,97.90
2022-11-17T07:40:43.421Z,98.00
2022-11-17T07:44:05.907Z,97.70
2022-11-17T07:47:28.178Z,97.60
2022-11-17T07:50:50.677Z,97.60
2022-11-17T07:54:12.871Z,97.60
2022-11-17T07:57:35.723Z,97.40
2022-11-17T08:00:58.071Z,97.30
2022-11-17T08:04:20.297Z,97.20
2022-11-17T08:07:42.509Z,96.90
2022-11-17T08:11:10.055Z,96.80
2022-11-17T08:14:32.222Z,96.70
2022-11-17T08:17:56.259Z,96.40
2022-11-17T08:21:18.876Z,96.20
2022-11-17T08:24:41.049Z,96.10
2022-11-17T08:28:03.366Z,95.90
2022-11-17T08:31:25.747Z,95.90
2022-11-17T08:34:47.976Z,95.60
2022-11-17T08:38:15.344Z,95.60
2022-11-17T08:41:37.607Z,95.30
2022-11-17T08:45:00.424Z,95.10
2022-11-17T08:48:22.834Z,94.90
2022-11-17T08:51:45.056Z,95.00
2022-11-17T08:55:07.687Z,95.00
2022-11-17T08:58:29.923Z,95.10
2022-11-17T09:01:52.879Z,95.20
2022-11-17T09:05:15.220Z,95.30
2022-11-17T09:08:45.572Z,95.40
2022-11-17T09:12:08.840Z,95.30
2022-11-17T09:15:32.575Z,95.30
2022-11-17T09:18:58.431Z,95.30
2022-11-17T09:22:21.195Z,95.40
2022-11-17T09:25:43.375Z,95.40
2022-11-17T09:29:05.638Z,95.50
2022-11-17T09:32:28.210Z,95.40
2022-11-17T09:35:50.782Z,95.40
2022-11-17T09:39:12.949Z,95.50
2022-11-17T09:42:40.031Z,95.50
2022-11-17T09:46:46.182Z,95.50
2022-11-17T09:50:44.811Z,95.50
2022-11-17T09:54:41.092Z,95.50
2022-11-17T09:58:21.748Z,95.60
2022-11-17T10:01:44.193Z,95.60
2022-11-17T10:05:06.807Z,95.80
2022-11-17T10:09:00.610Z,95.70
2022-11-17T10:12:30.634Z,95.80
2022-11-17T10:15:59.983Z,95.80
2022-11-17T10:19:26.404Z,95.70
2022-11-17T10:22:50.073Z,95.70
2022-11-17T10:26:15.047Z,95.70
2022-11-17T10:29:37.185Z,95.60
2022-11-17T10:33:01.881Z,95.60
2022-11-17T10:36:28.864Z,95.50
2022-11-17T10:39:51.065Z,95.50
2022-11-17T10:43:13.284Z,95.40
2022-11-17T10:47:01.940Z,95.40
2022-11-17T10:50:29.986Z,95.10
2022-11-17T10:54:04.345Z,95.10
2022-11-17T10:57:27.202Z,94.90
2022-11-17T11:01:01.945Z,94.80
2022-11-17T11:04:33.661Z,94.70
2022-11-17T11:08:17.841Z,94.70
2022-11-17T11:11:51.995Z,94.60
2022-11-17T11:15:21.325Z,94.60
2022-11-17T11:18:43.608Z,94.60
2022-11-17T11:22:23.669Z,94.40
2022-11-17T11:25:52.889Z,94.40
2022-11-17T11:29:52.557Z,94.40
2022-11-17T11:33:23.795Z,94.40
2022-11-17T11:37:00.282Z,94.30
2022-11-17T11:40:30.206Z,94.30
2022-11-17T11:44:10.513Z,94.50
2022-11-17T11:47:51.330Z,94.40
2022-11-17T11:51:34.757Z,94.60
2022-11-17T11:55:01.908Z,94.50
2022-11-17T11:58:25.025Z,94.50
2022-11-17T12:01:56.544Z,94.40
2022-11-17T12:05:34.427Z,94.70
2022-11-17T12:09:19.871Z,94.30
2022-11-17T12:12:46.214Z,94.20
2022-11-17T12:16:20.049Z,94.40
2022-11-17T12:19:53.859Z,94.10
2022-11-17T12:23:37.387Z,94.00
2022-11-17T12:27:42.042Z,93.80
2022-11-17T12:31:24.036Z,93.70
2022-11-17T12:35:24.451Z,94.10
2022-11-17T12:38:46.704Z,94.10
2022-11-17T12:42:08.930Z,94.20
2022-11-17T12:45:53.744Z,94.20
2022-11-17T12:49:30.153Z,94.20
2022-11-17T12:53:17.208Z,94.70
2022-11-17T12:56:45.059Z,94.40
2022-11-17T13:00:12.686Z,94.40
2022-11-17T13:03:43.784Z,94.50
2022-11-17T13:07:08.600Z,94.50
2022-11-17T13:10:32.907Z,94.50
2022-11-17T13:14:14.946Z,94.50
2022-11-17T13:17:43.051Z,94.50
2022-11-17T13:21:32.008Z,94.50
2022-11-17T13:24:54.582Z,94.60
2022-11-17T13:28:28.331Z,94.60
2022-11-17T13:31:50.520Z,94.60
2022-11-17T13:35:26.058Z,94.70
2022-11-17T13:38:49.250Z,94.60
2022-11-17T13:42:13.185Z,94.70
2022-11-17T13:45:35.442Z,94.60
2022-11-17T13:48:57.784Z,94.70
2022-11-17T13:52:39.327Z,94.60
2022-11-17T13:56:32.163Z,94.60
2022-11-17T13:59:55.378Z,94.60
2022-11-17T14:03:35.638Z,94.60
2022-11-17T14:07:02.541Z,94.40
2022-11-17T14:10:31.629Z,94.30
2022-11-17T14:13:58.868Z,94.40
2022-11-17T14:17:24.502Z,94.70
2022-11-17T14:20:46.750Z,94.30
2022-11-17T14:24:12.552Z,94.30
2022-11-17T14:27:38.581Z,94.30
2022-11-17T14:31:00.873Z,94.20
2022-11-17T14:34:23.915Z,94.30
2022-11-17T14:37:46.364Z,94.30
2022-11-17T14:41:08.585Z,94.30
2022-11-17T14:44:30.787Z,94.30
2022-11-17T14:47:53.063Z,94.40
2022-11-17T14:51:16.222Z,94.30
2022-11-17T14:54:38.491Z,94.30
2022-11-17T14:58:00.764Z,94.70
2022-11-17T15:01:31.418Z,94.40
2022-11-17T15:04:54.102Z,94.40
2022-11-17T15:08:16.805Z,94.40
2022-11-17T15:11:39.658Z,94.40
2022-11-17T15:15:01.986Z,94.40
2022-11-17T15:18:24.129Z,94.50
2022-11-17T15:21:46.400Z,94.50
2022-11-17T15:25:09.105Z,94.50
2022-11-17T15:28:31.807Z,94.50
2022-11-17T15:31:54.032Z,94.50
2022-11-17T15:35:16.350Z,94.50
2022-11-17T15:38:39.988Z,94.60
2022-11-17T15:42:02.143Z,94.50
2022-11-17T15:45:24.445Z,94.60
2022-11-17T15:48:49.109Z,94.60
2022-11-17T15:52:11.286Z,94.60
2022-11-17T15:55:35.301Z,94.50
2022-11-17T15:59:03.258Z,94.60
2022-11-17T16:02:25.567Z,94.70
2022-11-17T16:05:47.691Z,94.60
2022-11-17T16:09:11.883Z,94.60
2022-11-17T16:12:34.250Z,94.60
2022-11-17T16:15:56.918Z,94.70
2022-11-17T16:19:19.425Z,94.60
2022-11-17T16:22:41.767Z,94.60
2022-11-17T16:26:04.062Z,94.60
2022-11-17T16:29:26.242Z,94.60
2022-11-17T16:32:48.935Z,94.60
2022-11-17T16:36:11.152Z,94.60
2022-11-17T16:39:33.350Z,94.60
2022-11-17T16:42:57.606Z,94.70
2022-11-17T16:46:22.536Z,94.60
2022-11-17T16:49:49.134Z,94.30
2022-11-17T16:53:14.147Z,94.60
2022-11-17T16:56:36.526Z,94.70
2022-11-17T16:59:58.920Z,94.70
2022-11-17T17:03:21.265Z,95.10
2022-11-17T17:06:44.706Z,94.60
2022-11-17T17:10:07.509Z,94.60
2022-11-17T17:13:29.780Z,94.50
2022-11-17T17:16:52.115Z,94.60
2022-11-17T17:20:14.415Z,94.70
2022-11-17T17:23:36.652Z,94.80
2022-11-17T17:26:58.830Z,94.80
2022-11-17T17:30:21.194Z,94.90
2022-11-17T17:33:43.473Z,94.80
2022-11-17T17:37:05.724Z,94.70
2022-11-17T17:40:27.944Z,94.80
2022-11-17T17:44:02.112Z,94.80
2022-11-17T17:47:24.331Z,94.70
2022-11-17T17:50:46.565Z,94.80
2022-11-17T17:54:17.656Z,94.60
2022-11-17T17:57:40.784Z,94.60
2022-11-17T18:01:21.464Z,94.60
2022-11-17T18:04:43.787Z,94.50
2022-11-17T18:08:06.022Z,94.50
2022-11-17T18:11:28.338Z,94.60
2022-11-17T18:14:50.493Z,94.50
2022-11-17T18:18:12.753Z,94.60
2022-11-17T18:21:35.657Z,94.50
2022-11-17T18:24:58.478Z,94.50
2022-11-17T18:28:20.894Z,94.50
2022-11-17T18:31:46.496Z,94.50
2022-11-17T18:35:08.942Z,94.40
2022-11-17T18:38:33.713Z,94.40
2022-11-17T18:41:56.095Z,94.30
2022-11-17T18:45:18.274Z,94.30
2022-11-17T18:48:43.015Z,94.40
2022-11-17T18:52:05.573Z,94.30
2022-11-17T18:55:27.707Z,94.40
2022-11-17T18:58:50.299Z,94.30
2022-11-17T19:02:13.057Z,94.30
2022-11-17T19:05:36.012Z,94.30
2022-11-17T19:08:59.667Z,94.30
2022-11-17T19:12:22.241Z,94.20
2022-11-17T19:15:44.512Z,94.30
2022-11-17T19:19:06.791Z,94.20
2022-11-17T19:22:29.673Z,94.10
2022-11-17T19:25:51.939Z,94.10
2022-11-17T19:29:17.517Z,94.10
2022-11-17T19:32:39.887Z,94.00
2022-11-17T19:36:05.999Z,94.20
2022-11-17T19:39:28.517Z,94.00
2022-11-17T19:42:51.015Z,94.00
2022-11-17T19:46:15.793Z,93.90
2022-11-17T19:49:38.059Z,94.00
2022-11-17T19:53:00.266Z,93.90
2022-11-17T19:56:23.982Z,93.80
2022-11-17T19:59:46.367Z,93.90
2022-11-17T20:03:08.579Z,93.90
2022-11-17T20:06:37.268Z,93.80
2022-11-17T20:09:59.586Z,93.80
2022-11-17T20:13:21.794Z,93.80
2022-11-17T20:16:43.986Z,93.80
2022-11-17T20:20:08.158Z,93.80
2022-11-17T20:23:33.541Z,93.80
2022-11-17T20:26:55.730Z,94.00
2022-11-17T20:30:17.909Z,94.10
2022-11-17T20:33:41.961Z,94.50
2022-11-17T20:37:04.442Z,94.50
2022-11-17T20:40:28.872Z,95.20
2022-11-17T20:43:52.919Z,94.80
2022-11-17T20:47:15.146Z,95.00
2022-11-17T20:50:37.460Z,95.10
2022-11-17T20:53:59.667Z,95.10
2022-11-17T20:57:21.857Z,95.20
2022-11-17T21:00:44.320Z,94.90
2022-11-17T21:04:06.633Z,94.80
2022-11-17T21:07:28.859Z,94.90
2022-11-17T21:10:58.782Z,95.10
2022-11-17T21:14:21.162Z,95.10
2022-11-17T21:18:01.821Z,95.20
2022-11-17T21:21:24.102Z,94.90
2022-11-17T21:24:46.239Z,95.00
2022-11-17T21:28:08.461Z,95.20
2022-11-17T21:31:31.896Z,94.60
2022-11-17T21:34:54.294Z,95.20
2022-11-17T21:38:16.530Z,95.20
2022-11-17T21:41:39.052Z,95.00
2022-11-17T21:45:01.405Z,95.00
2022-11-17T21:48:23.639Z,95.10
2022-11-17T21:51:45.841Z,95.40
2022-11-17T21:55:08.550Z,95.20
2022-11-17T21:58:31.154Z,95.30
2022-11-17T22:01:53.514Z,95.30
2022-11-17T22:05:15.714Z,95.20
2022-11-17T22:08:39.519Z,95.20
2022-11-17T22:12:01.745Z,95.00
2022-11-17T22:15:24.071Z,95.10
2022-11-17T22:18:46.827Z,95.20
2022-11-17T22:22:09.049Z,95.30
2022-11-17T22:25:44.763Z,95.20
2022-11-17T22:29:11.808Z,95.10
2022-11-17T22:32:34.027Z,95.10
2022-11-17T22:36:00.081Z,95.00
2022-11-17T22:39:22.444Z,95.10
2022-11-17T22:42:44.654Z,95.00
2022-11-17T22:46:10.681Z,95.00
2022-11-17T22:49:32.877Z,95.00
2022-11-17T22:52:55.313Z,95.00
2022-11-17T22:56:17.863Z,95.00
2022-11-17T22:59:40.017Z,94.80
2022-11-17T23:03:02.222Z,95.00
2022-11-17T23:06:24.544Z,94.90
2022-11-17T23:09:46.760Z,95.10
2022-11-17T23:13:08.946Z,95.00
2022-11-17T23:16:32.113Z,95.00
2022-11-17T23:19:54.317Z,94.90
2022-11-17T23:23:17.429Z,95.00
2022-11-17T23:26:40.256Z,94.90
2022-11-17T23:30:02.787Z,94.90
2022-11-17T23:33:24.990Z,94.80
2022-11-17T23:36:47.283Z,94.80
2022-11-17T23:40:10.232Z,94.90
2022-11-17T23:43:32.578Z,94.60
2022-11-17T23:46:54.775Z,94.80
2022-11-17T23:50:17.481Z,94.70
2022-11-17T23:53:40.596Z,94.70
2022-11-17T23:57:02.899Z,94.60
